sensor_id;sensor_type;location;lat;lon;timestamp;temperature;humidity
74153;DHT22;62505;46.070;14.492;2023-05-10T00:01:11;22.50;59.50
74153;DHT22;62505;46.070;14.492;2023-05-10T00:03:37;22.40;59.40
74153;DHT22;62505;46.070;14.492;2023-05-10T00:06:05;22.40;59.40
74153;DHT22;62505;46.070;14.492;2023-05-10T00:08:32;22.40;59.40
74153;DHT22;62505;46.070;14.492;2023-05-10T00:10:59;22.40;59.50
74153;DHT22;62505;46.070;14.492;2023-05-10T00:13:27;22.40;59.50
74153;DHT22;62505;46.070;14.492;2023-05-10T00:15:54;22.50;59.60
74153;DHT22;62505;46.070;14.492;2023-05-10T00:18:21;22.50;59.60
74153;DHT22;62505;46.070;14.492;2023-05-10T00:20:47;22.50;59.60
74153;DHT22;62505;46.070;14.492;2023-05-10T00:23:15;22.50;59.60
74153;DHT22;62505;46.070;14.492;2023-05-10T00:25:42;22.40;59.60
74153;DHT22;62505;46.070;14.492;2023-05-10T00:28:09;22.40;59.70
74153;DHT22;62505;46.070;14.492;2023-05-10T00:30:37;22.40;59.70
74153;DHT22;62505;46.070;14.492;2023-05-10T00:33:04;22.40;59.80
74153;DHT22;62505;46.070;14.492;2023-05-10T00:35:31;22.50;59.80
74153;DHT22;62505;46.070;14.492;2023-05-10T00:37:57;22.40;59.80
74153;DHT22;62505;46.070;14.492;2023-05-10T00:40:24;22.50;59.80
74153;DHT22;62505;46.070;14.492;2023-05-10T00:42:51;22.40;59.80
74153;DHT22;62505;46.070;14.492;2023-05-10T00:45:18;22.40;59.80
74153;DHT22;62505;46.070;14.492;2023-05-10T00:47:47;22.40;59.80
74153;DHT22;62505;46.070;14.492;2023-05-10T00:50:14;22.40;59.80
74153;DHT22;62505;46.070;14.492;2023-05-10T00:52:42;22.40;59.90
74153;DHT22;62505;46.070;14.492;2023-05-10T00:55:09;22.50;59.90
74153;DHT22;62505;46.070;14.492;2023-05-10T00:57:38;22.40;59.90
74153;DHT22;62505;46.070;14.492;2023-05-10T01:00:06;22.40;60.00
74153;DHT22;62505;46.070;14.492;2023-05-10T01:02:33;22.50;60.00
74153;DHT22;62505;46.070;14.492;2023-05-10T01:05:02;22.40;60.10
74153;DHT22;62505;46.070;14.492;2023-05-10T01:07:30;22.40;60.00
74153;DHT22;62505;46.070;14.492;2023-05-10T01:09:57;22.40;60.10
74153;DHT22;62505;46.070;14.492;2023-05-10T01:12:24;22.40;60.10
74153;DHT22;62505;46.070;14.492;2023-05-10T01:14:51;22.40;60.10
74153;DHT22;62505;46.070;14.492;2023-05-10T01:17:19;22.40;60.20
74153;DHT22;62505;46.070;14.492;2023-05-10T01:19:46;22.50;60.20
74153;DHT22;62505;46.070;14.492;2023-05-10T01:22:30;22.40;60.20
74153;DHT22;62505;46.070;14.492;2023-05-10T01:25:15;22.40;60.20
74153;DHT22;62505;46.070;14.492;2023-05-10T01:31:08;22.40;60.20
74153;DHT22;62505;46.070;14.492;2023-05-10T01:33:44;22.40;60.30
74153;DHT22;62505;46.070;14.492;2023-05-10T01:36:18;22.40;60.30
74153;DHT22;62505;46.070;14.492;2023-05-10T01:38:55;22.40;60.30
74153;DHT22;62505;46.070;14.492;2023-05-10T01:41:29;22.40;60.40
74153;DHT22;62505;46.070;14.492;2023-05-10T01:44:04;22.40;60.40
74153;DHT22;62505;46.070;14.492;2023-05-10T01:46:35;22.40;60.30
74153;DHT22;62505;46.070;14.492;2023-05-10T01:49:08;22.40;60.40
74153;DHT22;62505;46.070;14.492;2023-05-10T01:51:39;22.40;60.50
74153;DHT22;62505;46.070;14.492;2023-05-10T01:54:09;22.40;60.40
74153;DHT22;62505;46.070;14.492;2023-05-10T01:56:37;22.40;61.30
74153;DHT22;62505;46.070;14.492;2023-05-10T01:59:13;22.50;60.60
74153;DHT22;62505;46.070;14.492;2023-05-10T02:01:42;22.50;60.70
74153;DHT22;62505;46.070;14.492;2023-05-10T02:04:11;22.40;60.60
74153;DHT22;62505;46.070;14.492;2023-05-10T02:06:41;22.50;60.70
74153;DHT22;62505;46.070;14.492;2023-05-10T02:09:10;22.40;60.60
74153;DHT22;62505;46.070;14.492;2023-05-10T02:11:38;22.40;60.60
74153;DHT22;62505;46.070;14.492;2023-05-10T02:14:07;22.40;60.70
74153;DHT22;62505;46.070;14.492;2023-05-10T02:16:36;22.40;60.70
74153;DHT22;62505;46.070;14.492;2023-05-10T02:19:05;22.40;60.70
74153;DHT22;62505;46.070;14.492;2023-05-10T02:21:36;22.40;60.70
74153;DHT22;62505;46.070;14.492;2023-05-10T02:24:04;22.40;60.70
74153;DHT22;62505;46.070;14.492;2023-05-10T02:26:33;22.40;60.80
74153;DHT22;62505;46.070;14.492;2023-05-10T02:29:01;22.40;60.80
74153;DHT22;62505;46.070;14.492;2023-05-10T02:31:30;22.40;60.90
74153;DHT22;62505;46.070;14.492;2023-05-10T02:33:59;22.40;60.80
74153;DHT22;62505;46.070;14.492;2023-05-10T02:36:27;22.50;60.90
74153;DHT22;62505;46.070;14.492;2023-05-10T02:38:56;22.40;60.90
74153;DHT22;62505;46.070;14.492;2023-05-10T02:41:25;22.40;60.90
74153;DHT22;62505;46.070;14.492;2023-05-10T02:43:57;22.50;60.90
74153;DHT22;62505;46.070;14.492;2023-05-10T02:46:25;22.40;60.90
74153;DHT22;62505;46.070;14.492;2023-05-10T02:48:53;22.40;60.90
74153;DHT22;62505;46.070;14.492;2023-05-10T02:51:23;22.50;61.00
74153;DHT22;62505;46.070;14.492;2023-05-10T02:53:53;22.40;61.00
74153;DHT22;62505;46.070;14.492;2023-05-10T02:56:29;22.40;61.00
74153;DHT22;62505;46.070;14.492;2023-05-10T02:58:59;22.40;61.00
74153;DHT22;62505;46.070;14.492;2023-05-10T03:01:26;22.40;61.00
74153;DHT22;62505;46.070;14.492;2023-05-10T03:03:53;22.40;61.00
74153;DHT22;62505;46.070;14.492;2023-05-10T03:06:20;22.40;61.00
74153;DHT22;62505;46.070;14.492;2023-05-10T03:08:48;22.40;61.20
74153;DHT22;62505;46.070;14.492;2023-05-10T03:11:31;22.40;61.20
74153;DHT22;62505;46.070;14.492;2023-05-10T03:14:08;22.50;61.20
74153;DHT22;62505;46.070;14.492;2023-05-10T03:16:42;22.40;61.20
74153;DHT22;62505;46.070;14.492;2023-05-10T03:19:14;22.50;61.20
74153;DHT22;62505;46.070;14.492;2023-05-10T03:21:45;22.40;61.20
74153;DHT22;62505;46.070;14.492;2023-05-10T03:24:14;22.40;61.20
74153;DHT22;62505;46.070;14.492;2023-05-10T03:26:43;22.40;61.20
74153;DHT22;62505;46.070;14.492;2023-05-10T03:29:12;22.40;61.30
74153;DHT22;62505;46.070;14.492;2023-05-10T03:31:39;22.50;61.30
74153;DHT22;62505;46.070;14.492;2023-05-10T03:34:06;22.40;61.30
74153;DHT22;62505;46.070;14.492;2023-05-10T03:36:33;22.40;61.30
74153;DHT22;62505;46.070;14.492;2023-05-10T03:39:00;22.40;61.30
74153;DHT22;62505;46.070;14.492;2023-05-10T03:41:27;22.40;61.30
74153;DHT22;62505;46.070;14.492;2023-05-10T03:43:56;22.40;61.30
74153;DHT22;62505;46.070;14.492;2023-05-10T03:46:22;22.40;61.30
74153;DHT22;62505;46.070;14.492;2023-05-10T03:48:49;22.40;61.40
74153;DHT22;62505;46.070;14.492;2023-05-10T03:51:16;22.40;61.40
74153;DHT22;62505;46.070;14.492;2023-05-10T03:53:43;22.40;61.40
74153;DHT22;62505;46.070;14.492;2023-05-10T03:56:10;22.40;61.40
74153;DHT22;62505;46.070;14.492;2023-05-10T03:58:37;22.40;61.50
74153;DHT22;62505;46.070;14.492;2023-05-10T04:01:05;22.40;61.40
74153;DHT22;62505;46.070;14.492;2023-05-10T04:03:32;22.40;61.50
74153;DHT22;62505;46.070;14.492;2023-05-10T04:06:01;22.40;61.50
74153;DHT22;62505;46.070;14.492;2023-05-10T04:08:28;22.40;61.50
74153;DHT22;62505;46.070;14.492;2023-05-10T04:11:04;22.50;61.50
74153;DHT22;62505;46.070;14.492;2023-05-10T04:13:32;22.40;61.50
74153;DHT22;62505;46.070;14.492;2023-05-10T04:15:58;22.40;61.50
74153;DHT22;62505;46.070;14.492;2023-05-10T04:18:27;22.40;61.50
74153;DHT22;62505;46.070;14.492;2023-05-10T04:20:54;22.40;61.60
74153;DHT22;62505;46.070;14.492;2023-05-10T04:23:20;22.40;61.60
74153;DHT22;62505;46.070;14.492;2023-05-10T04:25:47;22.40;61.60
74153;DHT22;62505;46.070;14.492;2023-05-10T04:28:14;22.40;61.70
74153;DHT22;62505;46.070;14.492;2023-05-10T04:30:41;22.40;61.70
74153;DHT22;62505;46.070;14.492;2023-05-10T04:33:08;22.40;61.60
74153;DHT22;62505;46.070;14.492;2023-05-10T04:35:36;22.40;61.70
74153;DHT22;62505;46.070;14.492;2023-05-10T04:38:04;22.40;61.70
74153;DHT22;62505;46.070;14.492;2023-05-10T04:40:31;22.40;61.70
74153;DHT22;62505;46.070;14.492;2023-05-10T04:42:58;22.40;61.70
74153;DHT22;62505;46.070;14.492;2023-05-10T04:45:24;22.40;61.70
74153;DHT22;62505;46.070;14.492;2023-05-10T04:47:51;22.40;61.70
74153;DHT22;62505;46.070;14.492;2023-05-10T04:50:18;22.40;61.80
74153;DHT22;62505;46.070;14.492;2023-05-10T04:52:46;22.50;61.80
74153;DHT22;62505;46.070;14.492;2023-05-10T04:55:13;22.40;61.80
74153;DHT22;62505;46.070;14.492;2023-05-10T04:57:40;22.40;61.80
74153;DHT22;62505;46.070;14.492;2023-05-10T05:00:08;22.40;61.80
74153;DHT22;62505;46.070;14.492;2023-05-10T05:02:35;22.40;61.80
74153;DHT22;62505;46.070;14.492;2023-05-10T05:05:02;22.40;61.80
74153;DHT22;62505;46.070;14.492;2023-05-10T05:07:28;22.40;61.90
74153;DHT22;62505;46.070;14.492;2023-05-10T05:09:57;22.40;61.90
74153;DHT22;62505;46.070;14.492;2023-05-10T05:12:25;22.40;63.00
74153;DHT22;62505;46.070;14.492;2023-05-10T05:14:52;22.50;65.00
74153;DHT22;62505;46.070;14.492;2023-05-10T05:17:19;22.50;63.70
74153;DHT22;62505;46.070;14.492;2023-05-10T05:19:46;22.50;64.70
74153;DHT22;62505;46.070;14.492;2023-05-10T05:22:12;22.50;63.60
74153;DHT22;62505;46.070;14.492;2023-05-10T05:24:39;22.50;63.90
74153;DHT22;62505;46.070;14.492;2023-05-10T05:27:07;22.60;63.40
74153;DHT22;62505;46.070;14.492;2023-05-10T05:29:34;22.60;63.20
74153;DHT22;62505;46.070;14.492;2023-05-10T05:32:01;22.60;63.70
74153;DHT22;62505;46.070;14.492;2023-05-10T05:34:28;22.50;64.00
74153;DHT22;62505;46.070;14.492;2023-05-10T05:36:55;22.60;63.90
74153;DHT22;62505;46.070;14.492;2023-05-10T05:39:22;22.60;64.30
74153;DHT22;62505;46.070;14.492;2023-05-10T05:41:49;22.60;63.90
74153;DHT22;62505;46.070;14.492;2023-05-10T05:44:17;22.60;64.00
74153;DHT22;62505;46.070;14.492;2023-05-10T05:46:44;22.60;64.00
74153;DHT22;62505;46.070;14.492;2023-05-10T05:49:11;22.60;64.20
74153;DHT22;62505;46.070;14.492;2023-05-10T05:51:38;22.60;64.00
74153;DHT22;62505;46.070;14.492;2023-05-10T05:54:04;22.60;64.40
74153;DHT22;62505;46.070;14.492;2023-05-10T05:56:31;22.60;64.50
74153;DHT22;62505;46.070;14.492;2023-05-10T05:58:58;22.70;64.40
74153;DHT22;62505;46.070;14.492;2023-05-10T06:01:26;22.70;64.40
74153;DHT22;62505;46.070;14.492;2023-05-10T06:03:53;22.70;64.50
74153;DHT22;62505;46.070;14.492;2023-05-10T06:06:20;22.60;64.30
74153;DHT22;62505;46.070;14.492;2023-05-10T06:08:47;22.60;64.60
74153;DHT22;62505;46.070;14.492;2023-05-10T06:11:14;22.70;64.60
74153;DHT22;62505;46.070;14.492;2023-05-10T06:13:41;22.70;64.70
74153;DHT22;62505;46.070;14.492;2023-05-10T06:16:08;22.70;64.60
74153;DHT22;62505;46.070;14.492;2023-05-10T06:18:36;22.70;64.60
74153;DHT22;62505;46.070;14.492;2023-05-10T06:21:03;22.70;64.60
74153;DHT22;62505;46.070;14.492;2023-05-10T06:23:30;22.70;64.70
74153;DHT22;62505;46.070;14.492;2023-05-10T06:25:57;22.70;64.80
74153;DHT22;62505;46.070;14.492;2023-05-10T06:28:24;22.70;64.70
74153;DHT22;62505;46.070;14.492;2023-05-10T06:30:51;22.70;64.60
74153;DHT22;62505;46.070;14.492;2023-05-10T06:33:18;22.70;64.80
74153;DHT22;62505;46.070;14.492;2023-05-10T06:35:46;22.70;64.60
74153;DHT22;62505;46.070;14.492;2023-05-10T06:38:13;22.70;64.80
74153;DHT22;62505;46.070;14.492;2023-05-10T06:40:41;22.70;64.80
74153;DHT22;62505;46.070;14.492;2023-05-10T06:43:08;22.70;64.20
74153;DHT22;62505;46.070;14.492;2023-05-10T06:45:35;22.70;64.20
74153;DHT22;62505;46.070;14.492;2023-05-10T06:48:02;22.70;64.60
74153;DHT22;62505;46.070;14.492;2023-05-10T06:50:29;22.70;64.80
74153;DHT22;62505;46.070;14.492;2023-05-10T06:52:57;22.70;64.80
74153;DHT22;62505;46.070;14.492;2023-05-10T06:55:24;22.70;64.80
74153;DHT22;62505;46.070;14.492;2023-05-10T06:57:51;22.70;64.80
74153;DHT22;62505;46.070;14.492;2023-05-10T07:00:19;22.70;64.90
74153;DHT22;62505;46.070;14.492;2023-05-10T07:02:46;22.70;64.90
74153;DHT22;62505;46.070;14.492;2023-05-10T07:05:13;22.70;65.00
74153;DHT22;62505;46.070;14.492;2023-05-10T07:07:40;22.70;64.80
74153;DHT22;62505;46.070;14.492;2023-05-10T07:10:09;22.80;64.80
74153;DHT22;62505;46.070;14.492;2023-05-10T07:12:36;22.80;64.90
74153;DHT22;62505;46.070;14.492;2023-05-10T07:15:04;22.80;65.00
74153;DHT22;62505;46.070;14.492;2023-05-10T07:17:31;22.80;65.00
74153;DHT22;62505;46.070;14.492;2023-05-10T07:19:59;22.80;65.10
74153;DHT22;62505;46.070;14.492;2023-05-10T07:22:26;22.80;64.90
74153;DHT22;62505;46.070;14.492;2023-05-10T07:24:53;22.80;65.10
74153;DHT22;62505;46.070;14.492;2023-05-10T07:27:21;22.70;64.50
74153;DHT22;62505;46.070;14.492;2023-05-10T07:29:48;22.80;64.30
74153;DHT22;62505;46.070;14.492;2023-05-10T07:32:15;22.80;64.60
74153;DHT22;62505;46.070;14.492;2023-05-10T07:34:42;22.80;64.50
74153;DHT22;62505;46.070;14.492;2023-05-10T07:37:09;22.70;64.40
74153;DHT22;62505;46.070;14.492;2023-05-10T07:39:35;22.70;64.60
74153;DHT22;62505;46.070;14.492;2023-05-10T07:42:03;22.70;64.50
74153;DHT22;62505;46.070;14.492;2023-05-10T07:44:31;22.70;64.10
74153;DHT22;62505;46.070;14.492;2023-05-10T07:46:58;22.80;67.70
74153;DHT22;62505;46.070;14.492;2023-05-10T07:49:25;22.80;66.40
74153;DHT22;62505;46.070;14.492;2023-05-10T07:51:52;22.80;66.20
74153;DHT22;62505;46.070;14.492;2023-05-10T07:54:19;22.80;66.10
74153;DHT22;62505;46.070;14.492;2023-05-10T07:56:47;22.80;66.30
74153;DHT22;62505;46.070;14.492;2023-05-10T07:59:16;22.80;66.70
74153;DHT22;62505;46.070;14.492;2023-05-10T08:01:44;22.80;66.60
74153;DHT22;62505;46.070;14.492;2023-05-10T08:04:11;22.80;66.10
74153;DHT22;62505;46.070;14.492;2023-05-10T08:06:39;22.80;66.40
74153;DHT22;62505;46.070;14.492;2023-05-10T08:09:06;22.80;66.40
74153;DHT22;62505;46.070;14.492;2023-05-10T08:11:33;22.80;66.20
74153;DHT22;62505;46.070;14.492;2023-05-10T08:14:07;22.80;66.20
74153;DHT22;62505;46.070;14.492;2023-05-10T08:16:34;22.80;66.10
74153;DHT22;62505;46.070;14.492;2023-05-10T08:19:02;22.80;66.20
74153;DHT22;62505;46.070;14.492;2023-05-10T08:21:29;22.80;66.10
74153;DHT22;62505;46.070;14.492;2023-05-10T08:23:57;22.80;66.30
74153;DHT22;62505;46.070;14.492;2023-05-10T08:26:24;22.80;66.40
74153;DHT22;62505;46.070;14.492;2023-05-10T08:28:51;22.80;66.40
74153;DHT22;62505;46.070;14.492;2023-05-10T08:31:18;22.80;66.40
74153;DHT22;62505;46.070;14.492;2023-05-10T08:33:45;22.80;66.40
74153;DHT22;62505;46.070;14.492;2023-05-10T08:36:13;22.80;66.10
74153;DHT22;62505;46.070;14.492;2023-05-10T08:38:45;22.80;66.70
74153;DHT22;62505;46.070;14.492;2023-05-10T08:41:11;22.80;66.50
74153;DHT22;62505;46.070;14.492;2023-05-10T08:43:39;22.90;66.40
74153;DHT22;62505;46.070;14.492;2023-05-10T08:46:10;22.90;66.70
74153;DHT22;62505;46.070;14.492;2023-05-10T08:48:39;22.90;66.50
74153;DHT22;62505;46.070;14.492;2023-05-10T08:51:07;22.90;66.70
74153;DHT22;62505;46.070;14.492;2023-05-10T08:53:36;22.90;66.50
74153;DHT22;62505;46.070;14.492;2023-05-10T08:56:04;22.90;66.50
74153;DHT22;62505;46.070;14.492;2023-05-10T08:58:31;22.90;66.70
74153;DHT22;62505;46.070;14.492;2023-05-10T09:00:59;22.90;66.70
74153;DHT22;62505;46.070;14.492;2023-05-10T09:03:27;22.90;66.50
74153;DHT22;62505;46.070;14.492;2023-05-10T09:05:54;22.90;66.30
74153;DHT22;62505;46.070;14.492;2023-05-10T09:08:23;22.90;66.20
74153;DHT22;62505;46.070;14.492;2023-05-10T09:10:53;22.90;66.50
74153;DHT22;62505;46.070;14.492;2023-05-10T09:13:21;22.90;66.60
74153;DHT22;62505;46.070;14.492;2023-05-10T09:15:49;22.90;67.00
74153;DHT22;62505;46.070;14.492;2023-05-10T09:18:16;22.90;66.50
74153;DHT22;62505;46.070;14.492;2023-05-10T09:20:42;22.90;66.50
74153;DHT22;62505;46.070;14.492;2023-05-10T09:23:10;22.90;66.70
74153;DHT22;62505;46.070;14.492;2023-05-10T09:25:37;22.90;66.70
74153;DHT22;62505;46.070;14.492;2023-05-10T09:28:08;22.90;66.50
74153;DHT22;62505;46.070;14.492;2023-05-10T09:30:35;22.90;66.90
74153;DHT22;62505;46.070;14.492;2023-05-10T09:33:05;22.90;66.90
74153;DHT22;62505;46.070;14.492;2023-05-10T09:35:33;22.90;67.00
74153;DHT22;62505;46.070;14.492;2023-05-10T09:38:02;23.00;67.00
74153;DHT22;62505;46.070;14.492;2023-05-10T09:40:29;22.90;67.00
74153;DHT22;62505;46.070;14.492;2023-05-10T09:42:57;22.90;67.00
74153;DHT22;62505;46.070;14.492;2023-05-10T09:45:28;23.00;66.60
74153;DHT22;62505;46.070;14.492;2023-05-10T09:47:56;22.90;67.30
74153;DHT22;62505;46.070;14.492;2023-05-10T09:50:23;22.90;66.80
74153;DHT22;62505;46.070;14.492;2023-05-10T09:52:51;23.00;66.40
74153;DHT22;62505;46.070;14.492;2023-05-10T09:55:20;22.90;66.40
74153;DHT22;62505;46.070;14.492;2023-05-10T09:57:47;22.90;67.00
74153;DHT22;62505;46.070;14.492;2023-05-10T10:00:18;22.90;66.40
74153;DHT22;62505;46.070;14.492;2023-05-10T10:02:48;22.90;66.20
74153;DHT22;62505;46.070;14.492;2023-05-10T10:05:15;22.90;66.20
74153;DHT22;62505;46.070;14.492;2023-05-10T10:07:42;22.90;66.00
74153;DHT22;62505;46.070;14.492;2023-05-10T10:10:09;22.90;66.10
74153;DHT22;62505;46.070;14.492;2023-05-10T10:12:39;22.90;66.10
74153;DHT22;62505;46.070;14.492;2023-05-10T10:15:08;22.90;66.10
74153;DHT22;62505;46.070;14.492;2023-05-10T10:17:36;22.90;66.70
74153;DHT22;62505;46.070;14.492;2023-05-10T10:20:06;22.90;66.00
74153;DHT22;62505;46.070;14.492;2023-05-10T10:22:34;22.90;65.80
74153;DHT22;62505;46.070;14.492;2023-05-10T10:25:01;22.90;65.80
74153;DHT22;62505;46.070;14.492;2023-05-10T10:27:36;22.90;65.70
74153;DHT22;62505;46.070;14.492;2023-05-10T10:30:13;22.90;65.70
74153;DHT22;62505;46.070;14.492;2023-05-10T10:33:11;22.90;65.60
74153;DHT22;62505;46.070;14.492;2023-05-10T10:35:43;22.90;66.60
74153;DHT22;62505;46.070;14.492;2023-05-10T10:38:12;22.90;65.80
74153;DHT22;62505;46.070;14.492;2023-05-10T10:40:39;22.80;65.70
74153;DHT22;62505;46.070;14.492;2023-05-10T10:43:23;22.90;65.70
74153;DHT22;62505;46.070;14.492;2023-05-10T10:46:11;22.90;65.70
74153;DHT22;62505;46.070;14.492;2023-05-10T10:48:39;22.90;65.70
74153;DHT22;62505;46.070;14.492;2023-05-10T10:51:07;22.90;65.60
74153;DHT22;62505;46.070;14.492;2023-05-10T10:53:34;22.90;65.50
74153;DHT22;62505;46.070;14.492;2023-05-10T10:56:08;22.90;65.60
74153;DHT22;62505;46.070;14.492;2023-05-10T10:58:36;22.90;65.60
74153;DHT22;62505;46.070;14.492;2023-05-10T11:01:11;22.90;65.60
74153;DHT22;62505;46.070;14.492;2023-05-10T11:03:38;22.80;65.50
74153;DHT22;62505;46.070;14.492;2023-05-10T11:06:07;22.90;65.60
74153;DHT22;62505;46.070;14.492;2023-05-10T11:08:41;22.80;65.50
74153;DHT22;62505;46.070;14.492;2023-05-10T11:11:09;22.90;65.50
74153;DHT22;62505;46.070;14.492;2023-05-10T11:13:41;22.90;65.50
74153;DHT22;62505;46.070;14.492;2023-05-10T11:16:13;22.90;65.50
74153;DHT22;62505;46.070;14.492;2023-05-10T11:18:47;22.90;65.50
74153;DHT22;62505;46.070;14.492;2023-05-10T11:21:19;22.90;65.50
74153;DHT22;62505;46.070;14.492;2023-05-10T11:23:51;22.80;65.50
74153;DHT22;62505;46.070;14.492;2023-05-10T11:26:18;22.80;65.50
74153;DHT22;62505;46.070;14.492;2023-05-10T11:28:49;22.80;65.50
74153;DHT22;62505;46.070;14.492;2023-05-10T11:31:17;22.80;65.50
74153;DHT22;62505;46.070;14.492;2023-05-10T11:33:44;22.90;65.50
74153;DHT22;62505;46.070;14.492;2023-05-10T11:36:12;22.90;65.50
74153;DHT22;62505;46.070;14.492;2023-05-10T11:38:40;22.80;65.50
74153;DHT22;62505;46.070;14.492;2023-05-10T11:41:08;22.80;65.40
74153;DHT22;62505;46.070;14.492;2023-05-10T11:43:37;22.90;65.40
74153;DHT22;62505;46.070;14.492;2023-05-10T11:46:04;22.90;65.50
74153;DHT22;62505;46.070;14.492;2023-05-10T11:48:32;22.80;65.40
74153;DHT22;62505;46.070;14.492;2023-05-10T11:51:00;22.80;65.40
74153;DHT22;62505;46.070;14.492;2023-05-10T11:53:27;22.90;65.50
74153;DHT22;62505;46.070;14.492;2023-05-10T11:56:02;22.80;65.40
74153;DHT22;62505;46.070;14.492;2023-05-10T11:58:30;22.90;65.40
74153;DHT22;62505;46.070;14.492;2023-05-10T12:00:57;22.80;65.30
74153;DHT22;62505;46.070;14.492;2023-05-10T12:03:24;22.80;65.30
74153;DHT22;62505;46.070;14.492;2023-05-10T12:05:51;22.90;66.20
74153;DHT22;62505;46.070;14.492;2023-05-10T12:08:21;22.80;65.80
74153;DHT22;62505;46.070;14.492;2023-05-10T12:10:48;22.90;66.00
74153;DHT22;62505;46.070;14.492;2023-05-10T12:13:17;22.90;66.00
74153;DHT22;62505;46.070;14.492;2023-05-10T12:15:44;22.90;66.10
74153;DHT22;62505;46.070;14.492;2023-05-10T12:18:11;22.90;66.00
74153;DHT22;62505;46.070;14.492;2023-05-10T12:20:39;22.90;66.30
74153;DHT22;62505;46.070;14.492;2023-05-10T12:23:09;22.90;66.40
74153;DHT22;62505;46.070;14.492;2023-05-10T12:25:37;23.00;66.70
74153;DHT22;62505;46.070;14.492;2023-05-10T12:28:05;23.00;66.90
74153;DHT22;62505;46.070;14.492;2023-05-10T12:30:35;23.00;68.20
74153;DHT22;62505;46.070;14.492;2023-05-10T12:33:07;23.00;68.00
74153;DHT22;62505;46.070;14.492;2023-05-10T12:35:43;23.00;68.80
74153;DHT22;62505;46.070;14.492;2023-05-10T12:38:27;23.00;68.30
74153;DHT22;62505;46.070;14.492;2023-05-10T12:40:56;23.00;68.50
74153;DHT22;62505;46.070;14.492;2023-05-10T12:43:23;23.00;68.80
74153;DHT22;62505;46.070;14.492;2023-05-10T12:45:51;23.10;69.00
74153;DHT22;62505;46.070;14.492;2023-05-10T12:48:18;23.10;69.30
74153;DHT22;62505;46.070;14.492;2023-05-10T12:50:45;23.10;69.00
74153;DHT22;62505;46.070;14.492;2023-05-10T12:53:13;23.10;69.10
74153;DHT22;62505;46.070;14.492;2023-05-10T12:55:41;23.10;69.80
74153;DHT22;62505;46.070;14.492;2023-05-10T12:58:07;23.10;68.50
74153;DHT22;62505;46.070;14.492;2023-05-10T13:00:34;23.10;68.50
74153;DHT22;62505;46.070;14.492;2023-05-10T13:03:04;23.00;67.90
74153;DHT22;62505;46.070;14.492;2023-05-10T13:05:32;23.00;67.80
74153;DHT22;62505;46.070;14.492;2023-05-10T13:07:59;23.00;67.60
74153;DHT22;62505;46.070;14.492;2023-05-10T13:10:25;23.00;67.50
74153;DHT22;62505;46.070;14.492;2023-05-10T13:12:52;23.00;67.60
74153;DHT22;62505;46.070;14.492;2023-05-10T13:15:19;23.00;67.30
74153;DHT22;62505;46.070;14.492;2023-05-10T13:17:46;23.00;67.30
74153;DHT22;62505;46.070;14.492;2023-05-10T13:20:14;23.00;67.10
74153;DHT22;62505;46.070;14.492;2023-05-10T13:22:42;23.00;67.20
74153;DHT22;62505;46.070;14.492;2023-05-10T13:25:10;23.00;67.30
74153;DHT22;62505;46.070;14.492;2023-05-10T13:27:37;23.00;67.30
74153;DHT22;62505;46.070;14.492;2023-05-10T13:30:05;23.00;66.90
74153;DHT22;62505;46.070;14.492;2023-05-10T13:32:33;23.00;67.00
74153;DHT22;62505;46.070;14.492;2023-05-10T13:35:00;22.90;66.90
74153;DHT22;62505;46.070;14.492;2023-05-10T13:37:30;22.90;66.80
74153;DHT22;62505;46.070;14.492;2023-05-10T13:39:57;23.00;66.80
74153;DHT22;62505;46.070;14.492;2023-05-10T13:42:24;23.00;66.90
74153;DHT22;62505;46.070;14.492;2023-05-10T13:44:51;22.90;67.30
74153;DHT22;62505;46.070;14.492;2023-05-10T13:47:18;23.00;67.10
74153;DHT22;62505;46.070;14.492;2023-05-10T13:49:47;23.00;66.90
74153;DHT22;62505;46.070;14.492;2023-05-10T13:52:13;23.00;66.70
74153;DHT22;62505;46.070;14.492;2023-05-10T13:54:42;23.00;66.70
74153;DHT22;62505;46.070;14.492;2023-05-10T13:57:08;23.00;67.60
74153;DHT22;62505;46.070;14.492;2023-05-10T13:59:38;23.00;66.70
74153;DHT22;62505;46.070;14.492;2023-05-10T14:02:05;22.90;66.70
74153;DHT22;62505;46.070;14.492;2023-05-10T14:04:31;22.90;66.70
74153;DHT22;62505;46.070;14.492;2023-05-10T14:06:59;22.90;66.60
74153;DHT22;62505;46.070;14.492;2023-05-10T14:09:26;22.90;66.60
74153;DHT22;62505;46.070;14.492;2023-05-10T14:11:54;23.00;66.60
74153;DHT22;62505;46.070;14.492;2023-05-10T14:14:21;22.90;66.60
74153;DHT22;62505;46.070;14.492;2023-05-10T14:16:48;22.90;66.60
74153;DHT22;62505;46.070;14.492;2023-05-10T14:19:15;22.90;66.60
74153;DHT22;62505;46.070;14.492;2023-05-10T14:21:42;22.90;66.50
74153;DHT22;62505;46.070;14.492;2023-05-10T14:24:09;22.90;66.50
74153;DHT22;62505;46.070;14.492;2023-05-10T14:26:36;23.00;66.60
74153;DHT22;62505;46.070;14.492;2023-05-10T14:29:04;22.90;66.50
74153;DHT22;62505;46.070;14.492;2023-05-10T14:31:31;22.90;66.50
74153;DHT22;62505;46.070;14.492;2023-05-10T14:33:58;22.90;66.60
74153;DHT22;62505;46.070;14.492;2023-05-10T14:36:24;22.90;66.50
74153;DHT22;62505;46.070;14.492;2023-05-10T14:38:51;22.90;66.40
74153;DHT22;62505;46.070;14.492;2023-05-10T14:41:18;22.90;66.50
74153;DHT22;62505;46.070;14.492;2023-05-10T14:43:45;22.90;66.50
74153;DHT22;62505;46.070;14.492;2023-05-10T14:46:13;22.90;66.50
74153;DHT22;62505;46.070;14.492;2023-05-10T14:48:41;22.90;66.40
74153;DHT22;62505;46.070;14.492;2023-05-10T14:51:08;22.90;66.40
74153;DHT22;62505;46.070;14.492;2023-05-10T14:53:35;22.90;66.50
74153;DHT22;62505;46.070;14.492;2023-05-10T14:56:01;22.90;66.40
74153;DHT22;62505;46.070;14.492;2023-05-10T14:58:28;22.90;66.40
74153;DHT22;62505;46.070;14.492;2023-05-10T15:00:55;22.90;66.40
74153;DHT22;62505;46.070;14.492;2023-05-10T15:03:24;22.90;66.40
74153;DHT22;62505;46.070;14.492;2023-05-10T15:05:51;22.90;66.40
74153;DHT22;62505;46.070;14.492;2023-05-10T15:08:18;22.90;66.40
74153;DHT22;62505;46.070;14.492;2023-05-10T15:10:45;22.90;66.40
74153;DHT22;62505;46.070;14.492;2023-05-10T15:13:13;22.90;66.40
74153;DHT22;62505;46.070;14.492;2023-05-10T15:15:40;22.90;66.40
74153;DHT22;62505;46.070;14.492;2023-05-10T15:18:06;22.90;66.30
74153;DHT22;62505;46.070;14.492;2023-05-10T15:20:35;22.90;66.30
74153;DHT22;62505;46.070;14.492;2023-05-10T15:23:02;22.90;66.30
74153;DHT22;62505;46.070;14.492;2023-05-10T15:25:28;22.90;66.30